sensor_id;sensor_type;location;lat;lon;timestamp;pressure;altitude;pressure_sealevel;temperature;humidity
47873;BME280;73966;47.438;18.912;2024-03-02T00:00:53;99262.97;;;11.84;67.67
47873;BME280;73966;47.438;18.912;2024-03-02T00:03:22;99259.13;;;11.98;67.27
47873;BME280;73966;47.438;18.912;2024-03-02T00:05:52;99266.56;;;12.35;66.15
47873;BME280;73966;47.438;18.912;2024-03-02T00:08:24;99264.09;;;12.12;66.67
47873;BME280;73966;47.438;18.912;2024-03-02T00:10:59;99262.56;;;11.89;67.57
47873;BME280;73966;47.438;18.912;2024-03-02T00:13:28;99256.91;;;11.61;68.34
47873;BME280;73966;47.438;18.912;2024-03-02T00:15:59;99250.62;;;11.83;67.75
47873;BME280;73966;47.438;18.912;2024-03-02T00:18:30;99247.25;;;12.02;66.82
47873;BME280;73966;47.438;18.912;2024-03-02T00:21:02;99246.41;;;12.01;67.01
47873;BME280;73966;47.438;18.912;2024-03-02T00:23:33;99235.38;;;11.96;66.55
47873;BME280;73966;47.438;18.912;2024-03-02T00:26:03;99237.63;;;12.01;66.83
47873;BME280;73966;47.438;18.912;2024-03-02T00:28:34;99241.75;;;11.94;66.92
47873;BME280;73966;47.438;18.912;2024-03-02T00:31:05;99233.97;;;12.02;66.41
47873;BME280;73966;47.438;18.912;2024-03-02T00:33:36;99240.78;;;11.95;66.66
47873;BME280;73966;47.438;18.912;2024-03-02T00:36:07;99242.78;;;11.61;67.82
47873;BME280;73966;47.438;18.912;2024-03-02T00:38:42;99243.19;;;11.77;67.09
47873;BME280;73966;47.438;18.912;2024-03-02T00:41:17;99242.41;;;11.65;67.76
47873;BME280;73966;47.438;18.912;2024-03-02T00:43:50;99243.81;;;11.69;67.63
47873;BME280;73966;47.438;18.912;2024-03-02T00:46:24;99245.31;;;11.83;66.88
47873;BME280;73966;47.438;18.912;2024-03-02T00:48:54;99239.41;;;11.58;67.63
47873;BME280;73966;47.438;18.912;2024-03-02T00:51:24;99241.91;;;11.92;66.09
47873;BME280;73966;47.438;18.912;2024-03-02T00:54:00;99246.47;;;11.48;67.38
47873;BME280;73966;47.438;18.912;2024-03-02T00:56:32;99239.84;;;11.43;67.79
47873;BME280;73966;47.438;18.912;2024-03-02T00:59:02;99246.09;;;11.95;65.94
47873;BME280;73966;47.438;18.912;2024-03-02T01:01:40;99243.84;;;11.90;66.02
47873;BME280;73966;47.438;18.912;2024-03-02T01:04:10;99246.56;;;11.47;67.21
47873;BME280;73966;47.438;18.912;2024-03-02T01:06:39;99247.41;;;11.47;67.06
47873;BME280;73966;47.438;18.912;2024-03-02T01:09:12;99243.53;;;11.51;66.62
47873;BME280;73966;47.438;18.912;2024-03-02T01:11:41;99241.50;;;11.23;67.47
47873;BME280;73966;47.438;18.912;2024-03-02T01:14:09;99242.84;;;11.49;66.78
47873;BME280;73966;47.438;18.912;2024-03-02T01:16:40;99243.09;;;11.46;66.32
47873;BME280;73966;47.438;18.912;2024-03-02T01:19:11;99241.31;;;11.03;67.63
47873;BME280;73966;47.438;18.912;2024-03-02T01:21:46;99241.03;;;11.18;66.76
47873;BME280;73966;47.438;18.912;2024-03-02T01:24:18;99239.13;;;11.08;66.79
47873;BME280;73966;47.438;18.912;2024-03-02T01:26:47;99237.25;;;11.31;66.32
47873;BME280;73966;47.438;18.912;2024-03-02T01:29:16;99227.06;;;11.69;64.93
47873;BME280;73966;47.438;18.912;2024-03-02T01:31:47;99220.09;;;11.36;65.39
47873;BME280;73966;47.438;18.912;2024-03-02T01:34:15;99223.09;;;11.63;64.64
47873;BME280;73966;47.438;18.912;2024-03-02T01:36:44;99221.47;;;11.72;64.23
47873;BME280;73966;47.438;18.912;2024-03-02T01:39:13;99221.47;;;11.51;64.78
47873;BME280;73966;47.438;18.912;2024-03-02T01:41:42;99222.31;;;11.51;64.78
47873;BME280;73966;47.438;18.912;2024-03-02T01:44:11;99216.22;;;12.02;62.95
47873;BME280;73966;47.438;18.912;2024-03-02T01:46:44;99206.22;;;11.85;63.57
47873;BME280;73966;47.438;18.912;2024-03-02T01:49:15;99191.94;;;12.07;62.50
47873;BME280;73966;47.438;18.912;2024-03-02T01:51:44;99198.31;;;11.95;63.12
47873;BME280;73966;47.438;18.912;2024-03-02T01:54:14;99199.34;;;11.82;63.58
47873;BME280;73966;47.438;18.912;2024-03-02T01:56:42;99198.47;;;12.24;62.17
47873;BME280;73966;47.438;18.912;2024-03-02T01:59:12;99202.63;;;11.75;63.61
47873;BME280;73966;47.438;18.912;2024-03-02T02:01:44;99212.56;;;11.73;64.00
47873;BME280;73966;47.438;18.912;2024-03-02T02:04:15;99207.22;;;11.84;63.88
47873;BME280;73966;47.438;18.912;2024-03-02T02:06:44;99207.75;;;11.67;64.21
47873;BME280;73966;47.438;18.912;2024-03-02T02:09:13;99212.34;;;11.44;65.09
47873;BME280;73966;47.438;18.912;2024-03-02T02:11:42;99210.63;;;11.96;63.55
47873;BME280;73966;47.438;18.912;2024-03-02T02:14:11;99221.56;;;11.61;64.66
47873;BME280;73966;47.438;18.912;2024-03-02T02:16:47;99228.41;;;11.42;65.02
47873;BME280;73966;47.438;18.912;2024-03-02T02:19:18;99229.97;;;11.87;63.62
47873;BME280;73966;47.438;18.912;2024-03-02T02:21:49;99236.41;;;12.15;62.60
47873;BME280;73966;47.438;18.912;2024-03-02T02:24:17;99248.22;;;11.80;63.32
47873;BME280;73966;47.438;18.912;2024-03-02T02:26:49;99247.97;;;11.83;63.56
47873;BME280;73966;47.438;18.912;2024-03-02T02:29:18;99249.69;;;10.76;66.82
47873;BME280;73966;47.438;18.912;2024-03-02T02:31:48;99245.00;;;11.23;65.94
47873;BME280;73966;47.438;18.912;2024-03-02T02:34:17;99244.81;;;11.89;63.62
47873;BME280;73966;47.438;18.912;2024-03-02T02:36:46;99247.37;;;11.58;64.33
47873;BME280;73966;47.438;18.912;2024-03-02T02:39:16;99246.56;;;11.47;64.84
47873;BME280;73966;47.438;18.912;2024-03-02T02:41:46;99250.62;;;11.30;65.10
47873;BME280;73966;47.438;18.912;2024-03-02T02:44:15;99248.97;;;11.29;65.16
47873;BME280;73966;47.438;18.912;2024-03-02T02:46:44;99239.69;;;11.23;65.41
47873;BME280;73966;47.438;18.912;2024-03-02T02:49:14;99243.88;;;11.58;64.35
47873;BME280;73966;47.438;18.912;2024-03-02T02:51:43;99233.63;;;11.32;64.96
47873;BME280;73966;47.438;18.912;2024-03-02T02:54:12;99237.59;;;11.06;65.58
47873;BME280;73966;47.438;18.912;2024-03-02T02:56:42;99236.25;;;11.65;64.13
47873;BME280;73966;47.438;18.912;2024-03-02T02:59:13;99237.19;;;11.64;63.81
47873;BME280;73966;47.438;18.912;2024-03-02T03:01:42;99228.88;;;11.68;63.76
47873;BME280;73966;47.438;18.912;2024-03-02T03:04:11;99227.62;;;11.51;63.92
47873;BME280;73966;47.438;18.912;2024-03-02T03:06:40;99234.09;;;11.58;63.57
47873;BME280;73966;47.438;18.912;2024-03-02T03:09:14;99235.97;;;11.68;63.62
47873;BME280;73966;47.438;18.912;2024-03-02T03:11:45;99237.53;;;11.91;62.79
47873;BME280;73966;47.438;18.912;2024-03-02T03:14:14;99240.38;;;11.78;63.10
47873;BME280;73966;47.438;18.912;2024-03-02T03:16:42;99240.59;;;11.66;63.49
47873;BME280;73966;47.438;18.912;2024-03-02T03:19:14;99239.63;;;12.09;62.28
47873;BME280;73966;47.438;18.912;2024-03-02T03:21:43;99249.41;;;11.87;62.85
47873;BME280;73966;47.438;18.912;2024-03-02T03:24:12;99238.44;;;11.80;63.27
47873;BME280;73966;47.438;18.912;2024-03-02T03:26:41;99244.16;;;11.76;63.38
47873;BME280;73966;47.438;18.912;2024-03-02T03:29:16;99247.50;;;11.57;64.05
47873;BME280;73966;47.438;18.912;2024-03-02T03:31:45;99243.88;;;11.58;63.98
47873;BME280;73966;47.438;18.912;2024-03-02T03:34:14;99246.81;;;11.76;63.36
47873;BME280;73966;47.438;18.912;2024-03-02T03:36:43;99244.13;;;11.55;64.07
47873;BME280;73966;47.438;18.912;2024-03-02T03:39:15;99244.00;;;11.56;63.87
47873;BME280;73966;47.438;18.912;2024-03-02T03:41:45;99244.56;;;11.39;63.94
47873;BME280;73966;47.438;18.912;2024-03-02T03:44:13;99248.94;;;11.61;63.63
47873;BME280;73966;47.438;18.912;2024-03-02T03:46:47;99240.47;;;11.35;64.20
47873;BME280;73966;47.438;18.912;2024-03-02T03:49:16;99240.44;;;11.46;63.96
47873;BME280;73966;47.438;18.912;2024-03-02T03:51:45;99244.78;;;11.68;63.51
47873;BME280;73966;47.438;18.912;2024-03-02T03:54:14;99251.97;;;11.77;63.46
47873;BME280;73966;47.438;18.912;2024-03-02T03:56:42;99248.59;;;11.75;63.68
47873;BME280;73966;47.438;18.912;2024-03-02T04:01:50;99252.41;;;11.82;63.84
47873;BME280;73966;47.438;18.912;2024-03-02T04:04:19;99261.06;;;11.64;64.42
47873;BME280;73966;47.438;18.912;2024-03-02T04:06:48;99259.34;;;11.74;64.14
47873;BME280;73966;47.438;18.912;2024-03-02T04:09:16;99259.09;;;11.24;66.31
47873;BME280;73966;47.438;18.912;2024-03-02T04:11:45;99258.81;;;11.59;65.12
47873;BME280;73966;47.438;18.912;2024-03-02T04:14:14;99259.59;;;11.18;66.70
47873;BME280;73966;47.438;18.912;2024-03-02T04:16:43;99269.22;;;11.51;65.62
47873;BME280;73966;47.438;18.912;2024-03-02T04:19:17;99268.38;;;11.29;66.31
47873;BME280;73966;47.438;18.912;2024-03-02T04:21:46;99265.81;;;11.28;66.27
47873;BME280;73966;47.438;18.912;2024-03-02T04:24:19;99279.78;;;10.98;67.41
47873;BME280;73966;47.438;18.912;2024-03-02T04:26:47;99277.41;;;10.61;68.75
47873;BME280;73966;47.438;18.912;2024-03-02T04:29:16;99272.66;;;11.10;67.41
47873;BME280;73966;47.438;18.912;2024-03-02T04:31:46;99272.75;;;11.08;67.60
47873;BME280;73966;47.438;18.912;2024-03-02T04:34:16;99276.44;;;11.28;66.81
47873;BME280;73966;47.438;18.912;2024-03-02T04:36:45;99281.03;;;10.71;69.13
47873;BME280;73966;47.438;18.912;2024-03-02T04:39:17;99280.62;;;10.98;68.21
47873;BME280;73966;47.438;18.912;2024-03-02T04:41:46;99281.59;;;10.97;68.22
47873;BME280;73966;47.438;18.912;2024-03-02T04:44:15;99271.06;;;11.07;67.79
47873;BME280;73966;47.438;18.912;2024-03-02T04:46:44;99285.81;;;11.32;67.17
47873;BME280;73966;47.438;18.912;2024-03-02T04:49:18;99286.00;;;11.08;68.17
47873;BME280;73966;47.438;18.912;2024-03-02T04:51:48;99281.91;;;11.15;67.96
47873;BME280;73966;47.438;18.912;2024-03-02T04:54:17;99287.53;;;11.33;67.61
47873;BME280;73966;47.438;18.912;2024-03-02T04:56:46;99289.00;;;11.26;68.07
47873;BME280;73966;47.438;18.912;2024-03-02T04:59:18;99294.47;;;11.13;68.59
47873;BME280;73966;47.438;18.912;2024-03-02T05:01:47;99290.22;;;11.22;68.55
47873;BME280;73966;47.438;18.912;2024-03-02T05:04:16;99295.44;;;11.44;67.87
47873;BME280;73966;47.438;18.912;2024-03-02T05:06:47;99292.31;;;11.39;68.18
47873;BME280;73966;47.438;18.912;2024-03-02T05:09:23;99286.34;;;11.26;68.68
47873;BME280;73966;47.438;18.912;2024-03-02T05:11:52;99287.84;;;11.40;68.15
47873;BME280;73966;47.438;18.912;2024-03-02T05:14:57;99285.66;;;11.45;68.07
47873;BME280;73966;47.438;18.912;2024-03-02T05:17:26;99288.38;;;11.54;67.71
47873;BME280;73966;47.438;18.912;2024-03-02T05:19:56;99287.66;;;11.20;68.73
47873;BME280;73966;47.438;18.912;2024-03-02T05:22:31;99291.69;;;11.68;67.34
47873;BME280;73966;47.438;18.912;2024-03-02T05:25:03;99289.97;;;11.57;67.82
47873;BME280;73966;47.438;18.912;2024-03-02T05:27:32;99289.53;;;11.73;67.11
47873;BME280;73966;47.438;18.912;2024-03-02T05:30:02;99287.31;;;11.57;67.78
47873;BME280;73966;47.438;18.912;2024-03-02T05:32:31;99295.03;;;11.60;67.83
47873;BME280;73966;47.438;18.912;2024-03-02T05:35:00;99292.47;;;11.58;67.91
47873;BME280;73966;47.438;18.912;2024-03-02T05:37:31;99292.91;;;11.43;68.51
47873;BME280;73966;47.438;18.912;2024-03-02T05:40:02;99287.41;;;11.23;69.30
47873;BME280;73966;47.438;18.912;2024-03-02T05:42:31;99292.41;;;11.17;69.60
47873;BME280;73966;47.438;18.912;2024-03-02T05:45:00;99291.59;;;11.37;69.18
47873;BME280;73966;47.438;18.912;2024-03-02T05:47:29;99289.16;;;11.45;68.56
47873;BME280;73966;47.438;18.912;2024-03-02T05:49:58;99290.97;;;11.13;69.57
47873;BME280;73966;47.438;18.912;2024-03-02T05:52:30;99289.53;;;11.41;69.08
47873;BME280;73966;47.438;18.912;2024-03-02T05:55:00;99290.50;;;11.40;68.79
47873;BME280;73966;47.438;18.912;2024-03-02T05:57:29;99294.50;;;11.34;69.20
47873;BME280;73966;47.438;18.912;2024-03-02T06:00:16;99298.50;;;11.28;69.40
47873;BME280;73966;47.438;18.912;2024-03-02T06:02:46;99297.72;;;11.05;70.29
47873;BME280;73966;47.438;18.912;2024-03-02T06:05:15;99305.56;;;10.96;70.95
47873;BME280;73966;47.438;18.912;2024-03-02T06:07:46;99312.66;;;10.95;71.31
47873;BME280;73966;47.438;18.912;2024-03-02T06:10:16;99310.72;;;11.08;70.49
47873;BME280;73966;47.438;18.912;2024-03-02T06:12:49;99327.59;;;10.96;70.85
47873;BME280;73966;47.438;18.912;2024-03-02T06:15:18;99327.00;;;10.93;71.07
47873;BME280;73966;47.438;18.912;2024-03-02T06:17:47;99326.44;;;10.78;71.77
47873;BME280;73966;47.438;18.912;2024-03-02T06:20:16;99335.56;;;10.40;73.18
47873;BME280;73966;47.438;18.912;2024-03-02T06:22:45;99328.84;;;10.70;72.50
47873;BME280;73966;47.438;18.912;2024-03-02T06:25:14;99327.88;;;10.93;71.61
47873;BME280;73966;47.438;18.912;2024-03-02T06:27:46;99334.47;;;10.88;71.66
47873;BME280;73966;47.438;18.912;2024-03-02T06:30:16;99326.75;;;10.96;71.57
47873;BME280;73966;47.438;18.912;2024-03-02T06:32:46;99329.19;;;10.88;71.79
47873;BME280;73966;47.438;18.912;2024-03-02T06:35:15;99328.72;;;10.82;72.26
47873;BME280;73966;47.438;18.912;2024-03-02T06:37:43;99334.06;;;11.26;70.85
47873;BME280;73966;47.438;18.912;2024-03-02T06:40:12;99328.78;;;11.15;70.79
47873;BME280;73966;47.438;18.912;2024-03-02T06:42:41;99330.63;;;11.46;70.00
47873;BME280;73966;47.438;18.912;2024-03-02T06:45:12;99337.34;;;11.07;71.45
47873;BME280;73966;47.438;18.912;2024-03-02T06:47:41;99335.75;;;11.27;70.96
47873;BME280;73966;47.438;18.912;2024-03-02T06:50:10;99329.63;;;11.15;71.20
47873;BME280;73966;47.438;18.912;2024-03-02T06:52:39;99339.16;;;11.06;71.93
47873;BME280;73966;47.438;18.912;2024-03-02T06:55:14;99333.19;;;10.82;72.89
47873;BME280;73966;47.438;18.912;2024-03-02T06:57:43;99336.44;;;10.74;73.13
47873;BME280;73966;47.438;18.912;2024-03-02T07:00:17;99338.44;;;11.04;72.11
47873;BME280;73966;47.438;18.912;2024-03-02T07:02:48;99334.94;;;11.04;72.14
47873;BME280;73966;47.438;18.912;2024-03-02T07:05:17;99332.00;;;11.29;71.47
47873;BME280;73966;47.438;18.912;2024-03-02T07:07:46;99334.06;;;11.26;71.32
47873;BME280;73966;47.438;18.912;2024-03-02T07:10:15;99334.88;;;11.38;71.02
47873;BME280;73966;47.438;18.912;2024-03-02T07:12:44;99338.75;;;11.33;71.29
47873;BME280;73966;47.438;18.912;2024-03-02T07:15:13;99339.25;;;11.60;70.58
47873;BME280;73966;47.438;18.912;2024-03-02T07:18:13;99341.28;;;11.67;70.27
47873;BME280;73966;47.438;18.912;2024-03-02T07:20:47;99339.31;;;11.48;70.76
47873;BME280;73966;47.438;18.912;2024-03-02T07:23:17;99340.19;;;11.70;70.09
47873;BME280;73966;47.438;18.912;2024-03-02T07:25:47;99341.31;;;11.56;70.71
47873;BME280;73966;47.438;18.912;2024-03-02T07:28:22;99342.88;;;11.58;70.58
47873;BME280;73966;47.438;18.912;2024-03-02T07:30:57;99350.22;;;11.66;70.07
47873;BME280;73966;47.438;18.912;2024-03-02T07:33:28;99340.06;;;11.71;70.10
47873;BME280;73966;47.438;18.912;2024-03-02T07:35:57;99349.03;;;11.59;70.38
47873;BME280;73966;47.438;18.912;2024-03-02T07:38:33;99337.22;;;11.52;70.81
47873;BME280;73966;47.438;18.912;2024-03-02T07:41:02;99349.19;;;11.46;71.07
47873;BME280;73966;47.438;18.912;2024-03-02T07:43:32;99345.03;;;11.32;71.64
47873;BME280;73966;47.438;18.912;2024-03-02T07:46:01;99355.75;;;11.31;71.73
47873;BME280;73966;47.438;18.912;2024-03-02T07:48:32;99348.09;;;10.83;73.10
47873;BME280;73966;47.438;18.912;2024-03-02T07:51:02;99357.25;;;11.13;72.27
47873;BME280;73966;47.438;18.912;2024-03-02T07:53:31;99350.63;;;11.07;72.34
47873;BME280;73966;47.438;18.912;2024-03-02T07:56:02;99354.28;;;11.38;71.58
47873;BME280;73966;47.438;18.912;2024-03-02T07:58:32;99357.50;;;11.10;72.70
47873;BME280;73966;47.438;18.912;2024-03-02T08:01:01;99358.38;;;11.42;71.81
47873;BME280;73966;47.438;18.912;2024-03-02T08:03:30;99373.88;;;11.15;72.52
47873;BME280;73966;47.438;18.912;2024-03-02T08:06:01;99366.16;;;11.12;72.82
47873;BME280;73966;47.438;18.912;2024-03-02T08:08:30;99365.78;;;11.16;72.82
47873;BME280;73966;47.438;18.912;2024-03-02T08:10:59;99373.78;;;10.82;74.54
47873;BME280;73966;47.438;18.912;2024-03-02T08:13:28;99364.75;;;11.40;71.92
47873;BME280;73966;47.438;18.912;2024-03-02T08:15:56;99365.91;;;10.92;73.53
47873;BME280;73966;47.438;18.912;2024-03-02T08:18:26;99375.06;;;11.11;73.31
47873;BME280;73966;47.438;18.912;2024-03-02T08:20:54;99374.09;;;11.12;73.41
47873;BME280;73966;47.438;18.912;2024-03-02T08:23:27;99376.75;;;11.12;72.91
47873;BME280;73966;47.438;18.912;2024-03-02T08:25:56;99364.38;;;10.78;74.42
47873;BME280;73966;47.438;18.912;2024-03-02T08:28:25;99376.28;;;10.95;73.89
47873;BME280;73966;47.438;18.912;2024-03-02T08:30:54;99373.16;;;11.01;74.20
47873;BME280;73966;47.438;18.912;2024-03-02T08:33:23;99379.91;;;10.83;74.85
47873;BME280;73966;47.438;18.912;2024-03-02T08:35:57;99375.22;;;10.87;74.54
47873;BME280;73966;47.438;18.912;2024-03-02T08:38:27;99370.25;;;11.16;73.69
47873;BME280;73966;47.438;18.912;2024-03-02T08:40:56;99368.72;;;11.56;76.49
47873;BME280;73966;47.438;18.912;2024-03-02T08:43:25;99373.94;;;11.79;75.56
47873;BME280;73966;47.438;18.912;2024-03-02T08:45:56;99374.56;;;12.03;72.29
47873;BME280;73966;47.438;18.912;2024-03-02T08:48:26;99371.03;;;11.82;71.57
47873;BME280;73966;47.438;18.912;2024-03-02T08:50:55;99378.31;;;11.69;72.10
47873;BME280;73966;47.438;18.912;2024-03-02T08:53:24;99378.53;;;11.88;71.18
47873;BME280;73966;47.438;18.912;2024-03-02T08:55:58;99374.91;;;11.89;70.86
47873;BME280;73966;47.438;18.912;2024-03-02T08:58:29;99374.06;;;11.89;70.79
47873;BME280;73966;47.438;18.912;2024-03-02T09:00:59;99377.69;;;11.76;71.78
47873;BME280;73966;47.438;18.912;2024-03-02T09:03:28;99381.50;;;11.95;71.08
47873;BME280;73966;47.438;18.912;2024-03-02T09:05:58;99372.88;;;11.70;71.87
47873;BME280;73966;47.438;18.912;2024-03-02T09:08:30;99373.88;;;11.58;72.18
47873;BME280;73966;47.438;18.912;2024-03-02T09:11:01;99376.41;;;11.60;72.49
47873;BME280;73966;47.438;18.912;2024-03-02T09:13:30;99381.81;;;11.69;72.29
47873;BME280;73966;47.438;18.912;2024-03-02T09:15:59;99376.59;;;11.79;72.02
47873;BME280;73966;47.438;18.912;2024-03-02T09:18:27;99375.63;;;11.80;71.82
47873;BME280;73966;47.438;18.912;2024-03-02T09:20:56;99378.22;;;11.59;72.46
47873;BME280;73966;47.438;18.912;2024-03-02T09:23:25;99381.72;;;11.60;72.44
47873;BME280;73966;47.438;18.912;2024-03-02T09:28:30;99380.16;;;11.68;72.37
47873;BME280;73966;47.438;18.912;2024-03-02T09:31:00;99375.81;;;11.56;72.09
47873;BME280;73966;47.438;18.912;2024-03-02T09:33:29;99374.09;;;11.66;72.21
47873;BME280;73966;47.438;18.912;2024-03-02T09:35:59;99383.72;;;11.24;73.77
47873;BME280;73966;47.438;18.912;2024-03-02T09:38:28;99376.47;;;11.48;72.84
47873;BME280;73966;47.438;18.912;2024-03-02T09:40:57;99385.91;;;11.30;73.47
47873;BME280;73966;47.438;18.912;2024-03-02T09:43:26;99390.22;;;11.42;75.90
47873;BME280;73966;47.438;18.912;2024-03-02T09:46:00;99390.38;;;11.73;74.14
47873;BME280;73966;47.438;18.912;2024-03-02T09:48:29;99386.31;;;12.22;72.74
47873;BME280;73966;47.438;18.912;2024-03-02T09:50:59;99388.31;;;12.09;70.72
47873;BME280;73966;47.438;18.912;2024-03-02T09:53:30;99384.63;;;12.42;69.30
47873;BME280;73966;47.438;18.912;2024-03-02T09:55:59;99388.19;;;12.31;69.57
47873;BME280;73966;47.438;18.912;2024-03-02T09:58:29;99385.72;;;11.97;70.53
47873;BME280;73966;47.438;18.912;2024-03-02T10:00:57;99377.31;;;12.13;69.87
47873;BME280;73966;47.438;18.912;2024-03-02T10:03:28;99380.41;;;11.97;70.41
47873;BME280;73966;47.438;18.912;2024-03-02T10:06:18;99384.91;;;11.86;70.93
47873;BME280;73966;47.438;18.912;2024-03-02T10:08:48;99389.31;;;11.64;72.14
47873;BME280;73966;47.438;18.912;2024-03-02T10:11:27;99382.91;;;11.67;71.56
47873;BME280;73966;47.438;18.912;2024-03-02T10:16:28;99380.69;;;11.83;71.33
47873;BME280;73966;47.438;18.912;2024-03-02T10:18:59;99380.41;;;11.97;70.61
47873;BME280;73966;47.438;18.912;2024-03-02T10:21:49;99382.22;;;11.53;72.08
47873;BME280;73966;47.438;18.912;2024-03-02T10:24:19;99373.78;;;11.92;71.38
47873;BME280;73966;47.438;18.912;2024-03-02T10:26:48;99389.41;;;11.74;71.45
47873;BME280;73966;47.438;18.912;2024-03-02T10:29:17;99382.41;;;11.84;71.52
47873;BME280;73966;47.438;18.912;2024-03-02T10:31:46;99377.03;;;11.95;70.96
47873;BME280;73966;47.438;18.912;2024-03-02T10:34:17;99379.81;;;12.15;70.71
47873;BME280;73966;47.438;18.912;2024-03-02T10:36:47;99375.53;;;11.70;71.91
47873;BME280;73966;47.438;18.912;2024-03-02T10:39:16;99380.75;;;11.61;72.14
47873;BME280;73966;47.438;18.912;2024-03-02T10:41:46;99371.88;;;11.82;71.46
47873;BME280;73966;47.438;18.912;2024-03-02T10:44:18;99375.78;;;11.99;70.76
47873;BME280;73966;47.438;18.912;2024-03-02T10:46:49;99377.34;;;11.70;71.78
47873;BME280;73966;47.438;18.912;2024-03-02T10:49:19;99370.56;;;12.09;70.75
47873;BME280;73966;47.438;18.912;2024-03-02T10:51:50;99365.38;;;11.87;71.70
47873;BME280;73966;47.438;18.912;2024-03-02T10:54:19;99381.00;;;12.22;70.53
47873;BME280;73966;47.438;18.912;2024-03-02T10:56:53;99372.97;;;12.12;71.32
47873;BME280;73966;47.438;18.912;2024-03-02T10:59:24;99370.03;;;12.15;71.15
47873;BME280;73966;47.438;18.912;2024-03-02T11:01:56;99375.81;;;12.41;70.10
47873;BME280;73966;47.438;18.912;2024-03-02T11:04:34;99370.66;;;12.40;70.13
47873;BME280;73966;47.438;18.912;2024-03-02T11:07:04;99370.00;;;12.05;70.45
47873;BME280;73966;47.438;18.912;2024-03-02T11:09:34;99368.16;;;11.85;71.31
47873;BME280;73966;47.438;18.912;2024-03-02T11:12:06;99362.22;;;12.14;70.93
47873;BME280;73966;47.438;18.912;2024-03-02T11:14:41;99358.38;;;12.06;71.55
47873;BME280;73966;47.438;18.912;2024-03-02T11:17:11;99362.47;;;12.52;70.27
47873;BME280;73966;47.438;18.912;2024-03-02T11:19:45;99361.63;;;12.31;70.59
47873;BME280;73966;47.438;18.912;2024-03-02T11:22:14;99353.03;;;11.97;71.50
47873;BME280;73966;47.438;18.912;2024-03-02T11:24:47;99361.63;;;12.10;70.84
47873;BME280;73966;47.438;18.912;2024-03-02T11:27:58;99358.00;;;12.11;70.67
47873;BME280;73966;47.438;18.912;2024-03-02T11:30:14;99353.31;;;11.71;72.13
47873;BME280;73966;47.438;18.912;2024-03-02T11:33:06;99358.38;;;12.06;71.29
47873;BME280;73966;47.438;18.912;2024-03-02T11:35:41;99359.81;;;11.78;72.88
47873;BME280;73966;47.438;18.912;2024-03-02T11:38:12;99348.50;;;12.09;71.89
47873;BME280;73966;47.438;18.912;2024-03-02T11:40:41;99349.78;;;11.82;71.57
47873;BME280;73966;47.438;18.912;2024-03-02T11:45:46;99350.56;;;11.73;71.98
47873;BME280;73966;47.438;18.912;2024-03-02T11:48:15;99358.00;;;12.11;71.37
47873;BME280;73966;47.438;18.912;2024-03-02T11:50:47;99344.06;;;12.19;71.71
47873;BME280;73966;47.438;18.912;2024-03-02T11:53:18;99345.31;;;12.15;72.30
47873;BME280;73966;47.438;18.912;2024-03-02T11:55:47;99338.91;;;12.17;70.54
47873;BME280;73966;47.438;18.912;2024-03-02T11:58:17;99344.53;;;11.71;71.84
47873;BME280;73966;47.438;18.912;2024-03-02T12:00:50;99341.25;;;11.78;72.63
47873;BME280;73966;47.438;18.912;2024-03-02T12:03:24;99344.97;;;11.87;72.39
47873;BME280;73966;47.438;18.912;2024-03-02T12:05:55;99344.13;;;11.75;72.60
47873;BME280;73966;47.438;18.912;2024-03-02T12:08:24;99345.00;;;11.76;72.29
47873;BME280;73966;47.438;18.912;2024-03-02T12:10:56;99344.97;;;11.87;73.22
47873;BME280;73966;47.438;18.912;2024-03-02T12:13:25;99341.09;;;11.91;72.20
47873;BME280;73966;47.438;18.912;2024-03-02T12:15:54;99344.00;;;12.30;71.00
47873;BME280;73966;47.438;18.912;2024-03-02T12:18:25;99335.97;;;12.41;70.76
47873;BME280;73966;47.438;18.912;2024-03-02T12:20:56;99339.84;;;12.37;70.37
47873;BME280;73966;47.438;18.912;2024-03-02T12:23:26;99342.59;;;12.26;70.96
47873;BME280;73966;47.438;18.912;2024-03-02T12:25:55;99346.78;;;11.75;72.09
47873;BME280;73966;47.438;18.912;2024-03-02T12:28:24;99347.75;;;12.06;71.08
47873;BME280;73966;47.438;18.912;2024-03-02T12:30:53;99350.88;;;12.33;70.68
47873;BME280;73966;47.438;18.912;2024-03-02T12:33:23;99347.31;;;12.43;70.50
47873;BME280;73966;47.438;18.912;2024-03-02T12:35:52;99346.37;;;12.54;69.26
47873;BME280;73966;47.438;18.912;2024-03-02T12:38:23;99345.28;;;12.87;68.63
47873;BME280;73966;47.438;18.912;2024-03-02T12:40:53;99342.34;;;12.29;70.92
47873;BME280;73966;47.438;18.912;2024-03-02T12:43:22;99346.19;;;12.46;70.19
47873;BME280;73966;47.438;18.912;2024-03-02T12:45:52;99337.56;;;12.53;70.53
47873;BME280;73966;47.438;18.912;2024-03-02T12:48:24;99343.22;;;12.70;69.00
47873;BME280;73966;47.438;18.912;2024-03-02T12:50:53;99344.69;;;12.53;69.90
47873;BME280;73966;47.438;18.912;2024-03-02T12:53:23;99347.38;;;12.63;69.36
47873;BME280;73966;47.438;18.912;2024-03-02T12:55:53;99349.97;;;12.43;70.11
47873;BME280;73966;47.438;18.912;2024-03-02T12:58:23;99347.22;;;12.54;68.83
47873;BME280;73966;47.438;18.912;2024-03-02T13:01:05;99351.66;;;12.02;70.21
47873;BME280;73966;47.438;18.912;2024-03-02T13:03:39;99347.31;;;12.43;69.53
47873;BME280;73966;47.438;18.912;2024-03-02T13:06:08;99345.81;;;12.29;69.86
47873;BME280;73966;47.438;18.912;2024-03-02T13:08:38;99345.06;;;11.97;70.83
47873;BME280;73966;47.438;18.912;2024-03-02T13:11:06;99346.13;;;12.15;70.89
47873;BME280;73966;47.438;18.912;2024-03-02T13:13:35;99347.00;;;12.16;70.89
47873;BME280;73966;47.438;18.912;2024-03-02T13:16:07;99345.69;;;12.31;70.54
47873;BME280;73966;47.438;18.912;2024-03-02T13:18:36;99347.97;;;12.15;70.30